SCFT

Futaleufú Airport

Airport
ICAO code
SCFT
IATA Code
FFU
Summary
ICAO Region
CARSAM
ICAO Territory
Location

Futaleufu, Los Lagos

Serving
Futaleufu
Elevation
1148 ft
Coordinates
43° 11' 21" S , 71° 51' 4" W
KCC
Metar
SCFT 221800Z AUTO 29004KT 9999 -RA FEW007/// BKN037/// OVC043/// 04/03 Q1011

Airport located near Futaleufu, Los Lagos, Chile.

Climatology

Temperate oceanic climate (Köppen climate classification Cfb)

Runways

Designator Length Width Surface Rops
9/27 948 18 ASP No/No

Airport map

Aerial View

SKYbrary Partners:

Safety knowledge contributed by: